Stumm im Zillertal
Wetterdaten: aktuell Samstag, 30.09.2023 17:45
Datum Zeit Temp. Auen Feuchte A. Luftdruck Regen Wind Richtung Richtung Sonnenschein ET UV Solar Taupunkt Windchill Windben
30.09.2023 17:45 19,4 C 70 % 1025,3 hPa 0,0 l/m 12,9 km/h N 349 1 min 0,001 mm 0,0 UV-I 23 W/m 13,8 C 17,1 C 16,1 km/h
30.09.2023 16:45 19,9 C 69 % 1024,7 hPa 0,0 l/m 10,1 km/h W-NW 288 8 min 0,203 mm 0,8 UV-I 152 W/m 14,0 C 18,5 C 12,9 km/h
30.09.2023 15:45 20,2 C 69 % 1024,6 hPa 0,0 l/m 11,4 km/h N-NW 327 34 min 0,381 mm 1,4 UV-I 192 W/m 14,3 C 18,4 C 17,7 km/h
30.09.2023 14:45 20,7 C 68 % 1024,9 hPa 0,0 l/m 14,6 km/h W-NW 292 60 min 0,330 mm 2,8 UV-I 540 W/m 14,6 C 18,2 C 19,3 km/h
30.09.2023 13:46 19,9 C 70 % 1025,5 hPa 0,0 l/m 12,2 km/h NW 309 45 min 0,356 mm 3,6 UV-I 633 W/m 14,3 C 17,9 C 16,1 km/h
30.09.2023 12:47 19,3 C 76 % 1025,8 hPa 0,0 l/m 6,0 km/h NW 305 51 min 0,330 mm 3,8 UV-I 633 W/m 15,0 C 19,3 C 14,5 km/h
30.09.2023 11:47 18,2 C 77 % 1026,8 hPa 0,0 l/m 8,0 km/h W-NW 283 51 min 0,127 mm 3,5 UV-I 667 W/m 14,1 C 17,5 C 9,7 km/h
30.09.2023 10:47 16,6 C 78 % 1027,3 hPa 0,0 l/m 0,0 km/h O-SO 104 8 min 0,051 mm 1,8 UV-I 357 W/m 12,7 C 16,6 C 0,0 km/h
30.09.2023 09:48 15,3 C 69 % 1027,2 hPa 0,0 l/m 0,0 km/h O-SO 121 0 min 0,025 mm 0,9 UV-I 155 W/m 9,6 C 15,3 C 0,0 km/h
30.09.2023 08:50 14,6 C 64 % 1026,9 hPa 0,0 l/m 0,0 km/h O-SO 120 0 min 0,000 mm 0,0 UV-I 33 W/m 7,9 C 14,6 C 0,0 km/h
30.09.2023 07:51 14,2 C 63 % 1027,1 hPa 0,0 l/m 0,0 km/h NO 49 0 min 0,026 mm 0,0 UV-I 5 W/m 7,3 C 14,2 C 0,0 km/h
30.09.2023 06:52 14,2 C 63 % 1026,5 hPa 0,0 l/m 0,0 km/h NO 49 0 min 0,025 mm 0,0 UV-I 0 W/m 7,3 C 14,2 C 0,0 km/h
30.09.2023 05:54 14,3 C 63 % 1026,4 hPa 0,0 l/m 0,0 km/h NO 49 0 min 0,025 mm 0,0 UV-I 0 W/m 7,4 C 14,3 C 0,0 km/h
30.09.2023 04:54 14,6 C 63 % 1026,4 hPa 0,0 l/m 0,0 km/h O 100 0 min 0,026 mm 0,0 UV-I 0 W/m 7,6 C 14,6 C 0,0 km/h
30.09.2023 03:57 14,4 C 66 % 1026,8 hPa 0,0 l/m 0,0 km/h SO 134 0 min 0,025 mm 0,0 UV-I 0 W/m 8,1 C 14,4 C 0,0 km/h
30.09.2023 02:59 14,4 C 73 % 1026,6 hPa 0,0 l/m 0,0 km/h SO 130 0 min 0,026 mm 0,0 UV-I 0 W/m 9,6 C 14,4 C 0,0 km/h
30.09.2023 02:02 14,6 C 75 % 1026,0 hPa 0,0 l/m 0,0 km/h SO 130 0 min 0,026 mm 0,0 UV-I 0 W/m 10,2 C 14,6 C 0,0 km/h
30.09.2023 01:04 15,0 C 78 % 1025,4 hPa 0,0 l/m 0,0 km/h SO 128 0 min 0,025 mm 0,0 UV-I 0 W/m 11,2 C 15,0 C 0,0 km/h
30.09.2023 00:08 15,3 C 77 % 1025,2 hPa 0,0 l/m 0,0 km/h W 275 0 min 0,000 mm 0,0 UV-I 0 W/m 11,3 C 15,3 C 0,0 km/h
29.09.2023 23:11 15,9 C 76 % 1024,6 hPa 0,0 l/m 0,0 km/h O-SO 107 0 min 0,025 mm 0,0 UV-I 0 W/m 11,7 C 15,9 C 0,0 km/h
29.09.2023 22:14 16,2 C 76 % 1024,5 hPa 0,0 l/m 0,0 km/h O-SO 107 0 min 0,026 mm 0,0 UV-I 0 W/m 12,0 C 16,2 C 0,0 km/h
29.09.2023 21:17 16,0 C 76 % 1024,3 hPa 0,0 l/m 0,0 km/h O-NO 57 0 min 0,025 mm 0,0 UV-I 0 W/m 11,8 C 16,0 C 0,0 km/h
29.09.2023 19:55 16,8 C 76 % 1023,4 hPa 0,0 l/m 0,0 km/h N 0 0 min 0,025 mm 0,0 UV-I 0 W/m 12,5 C 16,8 C 0,0 km/h
29.09.2023 18:00 20,2 C 67 % 1022,0 hPa 0,0 l/m 0,0 km/h N 0 0 min 0,102 mm 0,0 UV-I 23 W/m 13,9 C 20,2 C 0,0 km/h
_ Min-Zeit 05:17 04:29 18:00 - 18:00 - - - - - - 06:13 05:17 18:00
Minimum _ 14,2 C 63 % 1022,0 hPa - 0,0 km/h - - - - - - 7,3 C 14,2 C 0,0 km/h
_ Max-Zeit 14:24 23:36 10:22 18:00 14:05 - - 12:33 15:00 12:53 12:07 12:47 18:00 14:32
Maximum _ 20,8 C 78 % 1027,4 hPa 0,0 l/m 22,5 km/h
N-NW
- - 3 min 0,381 mm 4,0 UV-I 765 W/m 15,0 C 20,2 C 25,7 km/h
W-NW
Durchschnitt _ 16,9 C 71 % 1025,3 hPa #0,0 l/m 2,8 km/h W-NW - #4:16 h #2,134 mm 2,2 UV-I 301 W/m 11,6 C 16,5 C 4,0 km/h